Airport Name : Imam Khomeini Intl

Other Name : Tehran Khomeini

ICAO : OIIE

IATA : IKA

FAA :

Latitude : 35.416111

Longitude : 51.152222

Country : Iran

Local Date and Time : 1/23/2018 11:30:00 AM

 

TAF (Terminal Aerodrome Forecast)

TAF OIIE 230530Z 2306/2412 29003MPS 7000 NSC BECMG 2320/2321 FEW035CB SCT040 BKN100 PROB40 2321/2403 5000 RA SCT030CB SCT030 OVC100 BECMG 2405/2407 33010MPS

 

METAR (METeorological Aerodrome Report)

OIIE 230730Z 26006KT 9999 FEW100 BKN200 08/M04 Q1016 NOSIG

OIIE 230700Z 27006KT 9999 FEW100 BKN200 06/M04 Q1016

OIIE 230630Z 28006KT 9999 FEW100 BKN200 05/M04 Q1017 NOSIG

OIIE 230600Z 29006KT 9999 FEW100 BKN200 04/M04 Q1016

OIIE 230530Z 27006KT 9999 FEW100 BKN200 04/M04 Q1017 NOSIG

OIIE 230500Z 27006KT 9999 FEW100 BKN200 02/M05 Q1016

OIIE 230430Z 29006KT 9999 FEW100 BKN200 00/M05 Q1016